sensor_id;sensor_type;location;lat;lon;timestamp;temperature;humidity
736;DHT22;352;48.626;9.238;2023-07-02T00:01:45;20.10;99.90
736;DHT22;352;48.626;9.238;2023-07-02T00:04:13;20.10;99.90
736;DHT22;352;48.626;9.238;2023-07-02T00:06:42;20.10;99.90
736;DHT22;352;48.626;9.238;2023-07-02T00:09:08;20.10;99.90
736;DHT22;352;48.626;9.238;2023-07-02T00:11:36;20.10;99.90
736;DHT22;352;48.626;9.238;2023-07-02T00:14:04;20.10;99.90
736;DHT22;352;48.626;9.238;2023-07-02T00:16:31;20.00;99.90
736;DHT22;352;48.626;9.238;2023-07-02T00:18:58;20.00;99.90
736;DHT22;352;48.626;9.238;2023-07-02T00:21:25;20.10;99.90
736;DHT22;352;48.626;9.238;2023-07-02T00:23:53;20.10;99.90
736;DHT22;352;48.626;9.238;2023-07-02T00:26:21;20.00;99.90
736;DHT22;352;48.626;9.238;2023-07-02T00:28:48;20.00;99.90
736;DHT22;352;48.626;9.238;2023-07-02T00:31:16;20.00;99.90
736;DHT22;352;48.626;9.238;2023-07-02T00:33:43;19.90;99.90
736;DHT22;352;48.626;9.238;2023-07-02T00:36:10;19.80;99.90
736;DHT22;352;48.626;9.238;2023-07-02T00:38:40;19.80;99.90
736;DHT22;352;48.626;9.238;2023-07-02T00:41:07;19.80;99.90
736;DHT22;352;48.626;9.238;2023-07-02T00:43:34;19.70;99.90
736;DHT22;352;48.626;9.238;2023-07-02T00:46:01;19.70;99.90
736;DHT22;352;48.626;9.238;2023-07-02T00:48:29;19.70;99.90
736;DHT22;352;48.626;9.238;2023-07-02T00:50:56;19.70;99.90
736;DHT22;352;48.626;9.238;2023-07-02T00:53:22;19.60;99.90
736;DHT22;352;48.626;9.238;2023-07-02T00:55:49;19.60;99.90
736;DHT22;352;48.626;9.238;2023-07-02T00:58:16;19.60;99.90
736;DHT22;352;48.626;9.238;2023-07-02T01:00:46;19.60;99.90
736;DHT22;352;48.626;9.238;2023-07-02T01:03:13;19.60;99.90
736;DHT22;352;48.626;9.238;2023-07-02T01:05:41;19.60;99.90
736;DHT22;352;48.626;9.238;2023-07-02T01:08:08;19.60;99.90
736;DHT22;352;48.626;9.238;2023-07-02T01:10:36;19.60;99.90
736;DHT22;352;48.626;9.238;2023-07-02T01:13:07;19.60;99.90
736;DHT22;352;48.626;9.238;2023-07-02T01:15:36;19.60;99.90
736;DHT22;352;48.626;9.238;2023-07-02T01:18:04;19.60;99.90
736;DHT22;352;48.626;9.238;2023-07-02T01:20:33;19.60;99.90
736;DHT22;352;48.626;9.238;2023-07-02T01:23:01;19.60;99.90
736;DHT22;352;48.626;9.238;2023-07-02T01:25:29;19.60;99.90
736;DHT22;352;48.626;9.238;2023-07-02T01:27:55;19.60;99.90
736;DHT22;352;48.626;9.238;2023-07-02T01:30:24;19.60;99.90
736;DHT22;352;48.626;9.238;2023-07-02T01:32:51;19.60;99.90
736;DHT22;352;48.626;9.238;2023-07-02T01:35:17;19.60;99.90
736;DHT22;352;48.626;9.238;2023-07-02T01:37:45;19.60;99.90
736;DHT22;352;48.626;9.238;2023-07-02T01:40:12;19.50;99.90
736;DHT22;352;48.626;9.238;2023-07-02T01:42:39;19.50;99.90
736;DHT22;352;48.626;9.238;2023-07-02T01:45:07;19.40;99.90
736;DHT22;352;48.626;9.238;2023-07-02T01:47:34;19.30;99.90
736;DHT22;352;48.626;9.238;2023-07-02T01:50:01;19.30;99.90
736;DHT22;352;48.626;9.238;2023-07-02T01:52:28;19.30;99.90
736;DHT22;352;48.626;9.238;2023-07-02T01:55:00;19.40;99.90
736;DHT22;352;48.626;9.238;2023-07-02T01:57:26;19.20;99.90
736;DHT22;352;48.626;9.238;2023-07-02T01:59:53;19.10;99.90
736;DHT22;352;48.626;9.238;2023-07-02T02:02:20;19.10;99.90
736;DHT22;352;48.626;9.238;2023-07-02T02:04:47;19.10;99.90
736;DHT22;352;48.626;9.238;2023-07-02T02:07:13;19.00;99.90
736;DHT22;352;48.626;9.238;2023-07-02T02:09:40;19.00;99.90
736;DHT22;352;48.626;9.238;2023-07-02T02:12:08;19.00;99.90
736;DHT22;352;48.626;9.238;2023-07-02T02:14:35;18.90;99.90
736;DHT22;352;48.626;9.238;2023-07-02T02:17:02;18.90;99.90
736;DHT22;352;48.626;9.238;2023-07-02T02:19:29;18.90;99.90
736;DHT22;352;48.626;9.238;2023-07-02T02:21:56;18.90;99.90
736;DHT22;352;48.626;9.238;2023-07-02T02:24:22;18.90;99.90
736;DHT22;352;48.626;9.238;2023-07-02T02:26:49;19.00;99.90
736;DHT22;352;48.626;9.238;2023-07-02T02:29:17;19.00;99.90
736;DHT22;352;48.626;9.238;2023-07-02T02:31:44;19.00;99.90
736;DHT22;352;48.626;9.238;2023-07-02T02:34:10;19.00;99.90
736;DHT22;352;48.626;9.238;2023-07-02T02:36:37;19.00;99.90
736;DHT22;352;48.626;9.238;2023-07-02T02:39:04;19.00;99.90
736;DHT22;352;48.626;9.238;2023-07-02T02:41:31;19.00;99.90
736;DHT22;352;48.626;9.238;2023-07-02T02:43:57;19.00;99.90
736;DHT22;352;48.626;9.238;2023-07-02T02:46:25;19.00;99.90
736;DHT22;352;48.626;9.238;2023-07-02T02:48:52;19.00;99.90
736;DHT22;352;48.626;9.238;2023-07-02T02:51:19;19.00;99.90
736;DHT22;352;48.626;9.238;2023-07-02T02:53:46;19.00;99.90
736;DHT22;352;48.626;9.238;2023-07-02T02:56:12;19.00;99.90
736;DHT22;352;48.626;9.238;2023-07-02T02:58:39;19.00;99.90
736;DHT22;352;48.626;9.238;2023-07-02T03:01:06;19.10;99.90
736;DHT22;352;48.626;9.238;2023-07-02T03:03:38;19.10;99.90
736;DHT22;352;48.626;9.238;2023-07-02T03:06:05;19.10;99.90
736;DHT22;352;48.626;9.238;2023-07-02T03:08:31;19.10;99.90
736;DHT22;352;48.626;9.238;2023-07-02T03:10:58;19.10;99.90
736;DHT22;352;48.626;9.238;2023-07-02T03:13:25;19.10;99.90
736;DHT22;352;48.626;9.238;2023-07-02T03:15:51;19.10;99.90
736;DHT22;352;48.626;9.238;2023-07-02T03:18:18;19.10;99.90
736;DHT22;352;48.626;9.238;2023-07-02T03:20:46;18.90;99.90
736;DHT22;352;48.626;9.238;2023-07-02T03:23:13;18.80;99.90
736;DHT22;352;48.626;9.238;2023-07-02T03:25:39;18.80;99.90
736;DHT22;352;48.626;9.238;2023-07-02T03:28:06;18.80;99.90
736;DHT22;352;48.626;9.238;2023-07-02T03:30:33;18.70;99.90
736;DHT22;352;48.626;9.238;2023-07-02T03:32:59;18.70;99.90
736;DHT22;352;48.626;9.238;2023-07-02T03:35:26;18.70;99.90
736;DHT22;352;48.626;9.238;2023-07-02T03:37:54;18.70;99.90
736;DHT22;352;48.626;9.238;2023-07-02T03:40:23;18.70;99.90
736;DHT22;352;48.626;9.238;2023-07-02T03:42:49;18.60;99.90
736;DHT22;352;48.626;9.238;2023-07-02T03:45:16;18.60;99.90
736;DHT22;352;48.626;9.238;2023-07-02T03:47:42;18.60;99.90
736;DHT22;352;48.626;9.238;2023-07-02T03:50:09;18.60;99.90
736;DHT22;352;48.626;9.238;2023-07-02T03:52:36;18.60;99.90
736;DHT22;352;48.626;9.238;2023-07-02T03:55:05;18.60;99.90
736;DHT22;352;48.626;9.238;2023-07-02T03:57:32;18.60;99.90
736;DHT22;352;48.626;9.238;2023-07-02T03:59:59;18.50;99.90
736;DHT22;352;48.626;9.238;2023-07-02T04:02:25;18.40;99.90
736;DHT22;352;48.626;9.238;2023-07-02T04:04:52;18.40;99.90
736;DHT22;352;48.626;9.238;2023-07-02T04:07:19;18.40;99.90
736;DHT22;352;48.626;9.238;2023-07-02T04:09:45;18.40;99.90
736;DHT22;352;48.626;9.238;2023-07-02T04:12:13;18.40;99.90
736;DHT22;352;48.626;9.238;2023-07-02T04:14:40;18.40;99.90
736;DHT22;352;48.626;9.238;2023-07-02T04:17:07;18.50;99.90
736;DHT22;352;48.626;9.238;2023-07-02T04:19:34;18.50;99.90
736;DHT22;352;48.626;9.238;2023-07-02T04:22:01;18.50;99.90
736;DHT22;352;48.626;9.238;2023-07-02T04:24:27;18.50;99.90
736;DHT22;352;48.626;9.238;2023-07-02T04:26:54;18.50;99.90
736;DHT22;352;48.626;9.238;2023-07-02T04:29:22;18.50;99.90
736;DHT22;352;48.626;9.238;2023-07-02T04:31:49;18.50;99.90
736;DHT22;352;48.626;9.238;2023-07-02T04:34:15;18.50;99.90
736;DHT22;352;48.626;9.238;2023-07-02T04:36:43;18.50;99.90
736;DHT22;352;48.626;9.238;2023-07-02T04:39:10;18.50;99.90
736;DHT22;352;48.626;9.238;2023-07-02T04:41:36;18.50;99.90
736;DHT22;352;48.626;9.238;2023-07-02T04:44:04;18.50;99.90
736;DHT22;352;48.626;9.238;2023-07-02T04:46:32;18.50;99.90
736;DHT22;352;48.626;9.238;2023-07-02T04:48:58;18.50;99.90
736;DHT22;352;48.626;9.238;2023-07-02T04:51:25;18.50;99.90
736;DHT22;352;48.626;9.238;2023-07-02T04:53:51;18.50;99.90
736;DHT22;352;48.626;9.238;2023-07-02T04:56:18;18.50;99.90
736;DHT22;352;48.626;9.238;2023-07-02T04:58:45;18.50;99.90
736;DHT22;352;48.626;9.238;2023-07-02T05:01:12;18.60;99.90
736;DHT22;352;48.626;9.238;2023-07-02T05:03:40;18.60;99.90
736;DHT22;352;48.626;9.238;2023-07-02T05:06:06;18.50;99.90
736;DHT22;352;48.626;9.238;2023-07-02T05:08:33;18.50;99.90
736;DHT22;352;48.626;9.238;2023-07-02T05:11:00;18.60;99.90
736;DHT22;352;48.626;9.238;2023-07-02T05:13:26;18.50;99.90
736;DHT22;352;48.626;9.238;2023-07-02T05:15:53;18.60;99.90
736;DHT22;352;48.626;9.238;2023-07-02T05:18:20;18.60;99.90
736;DHT22;352;48.626;9.238;2023-07-02T05:20:48;18.70;99.90
736;DHT22;352;48.626;9.238;2023-07-02T05:23:14;18.80;99.90
736;DHT22;352;48.626;9.238;2023-07-02T05:25:41;18.90;99.90
736;DHT22;352;48.626;9.238;2023-07-02T05:28:08;18.90;99.90
736;DHT22;352;48.626;9.238;2023-07-02T05:30:34;18.90;99.90
736;DHT22;352;48.626;9.238;2023-07-02T05:33:01;19.00;99.90
736;DHT22;352;48.626;9.238;2023-07-02T05:35:28;19.00;99.90
736;DHT22;352;48.626;9.238;2023-07-02T05:37:56;19.20;99.90
736;DHT22;352;48.626;9.238;2023-07-02T05:40:23;19.20;99.90
736;DHT22;352;48.626;9.238;2023-07-02T05:42:49;19.20;99.90
736;DHT22;352;48.626;9.238;2023-07-02T05:45:16;19.30;99.90
736;DHT22;352;48.626;9.238;2023-07-02T05:47:43;19.40;99.90
736;DHT22;352;48.626;9.238;2023-07-02T05:50:09;19.50;99.90
736;DHT22;352;48.626;9.238;2023-07-02T05:52:36;19.60;99.90
736;DHT22;352;48.626;9.238;2023-07-02T05:55:05;19.60;99.90
736;DHT22;352;48.626;9.238;2023-07-02T05:57:35;19.60;99.90
736;DHT22;352;48.626;9.238;2023-07-02T06:00:03;19.60;99.90
736;DHT22;352;48.626;9.238;2023-07-02T06:02:31;19.60;99.90
736;DHT22;352;48.626;9.238;2023-07-02T06:04:58;19.70;99.90
736;DHT22;352;48.626;9.238;2023-07-02T06:07:24;20.10;99.90
736;DHT22;352;48.626;9.238;2023-07-02T06:09:51;20.60;99.90
736;DHT22;352;48.626;9.238;2023-07-02T06:12:20;21.20;99.90
736;DHT22;352;48.626;9.238;2023-07-02T06:14:47;21.60;99.90
736;DHT22;352;48.626;9.238;2023-07-02T06:17:13;21.80;99.90
736;DHT22;352;48.626;9.238;2023-07-02T06:19:40;21.80;99.90
736;DHT22;352;48.626;9.238;2023-07-02T06:22:07;22.10;99.90
736;DHT22;352;48.626;9.238;2023-07-02T06:24:34;22.40;99.90
736;DHT22;352;48.626;9.238;2023-07-02T06:27:00;22.90;99.90
736;DHT22;352;48.626;9.238;2023-07-02T06:29:29;23.30;99.90
736;DHT22;352;48.626;9.238;2023-07-02T06:31:56;23.70;99.90
736;DHT22;352;48.626;9.238;2023-07-02T06:34:22;24.00;99.90
736;DHT22;352;48.626;9.238;2023-07-02T06:36:49;24.30;99.90
736;DHT22;352;48.626;9.238;2023-07-02T06:39:16;24.80;99.90
736;DHT22;352;48.626;9.238;2023-07-02T06:41:42;24.80;99.90
736;DHT22;352;48.626;9.238;2023-07-02T06:44:09;25.00;99.50
736;DHT22;352;48.626;9.238;2023-07-02T06:46:37;25.30;98.90
736;DHT22;352;48.626;9.238;2023-07-02T06:49:04;25.50;98.60
736;DHT22;352;48.626;9.238;2023-07-02T06:51:31;25.40;98.80
736;DHT22;352;48.626;9.238;2023-07-02T06:53:58;25.40;98.40
736;DHT22;352;48.626;9.238;2023-07-02T06:56:25;25.50;98.40
736;DHT22;352;48.626;9.238;2023-07-02T06:58:52;25.60;98.40
736;DHT22;352;48.626;9.238;2023-07-02T07:01:18;25.50;97.90
736;DHT22;352;48.626;9.238;2023-07-02T07:03:47;25.50;97.20
736;DHT22;352;48.626;9.238;2023-07-02T07:06:13;25.30;97.70
736;DHT22;352;48.626;9.238;2023-07-02T07:08:40;25.00;98.10
736;DHT22;352;48.626;9.238;2023-07-02T07:11:07;24.70;98.90
736;DHT22;352;48.626;9.238;2023-07-02T07:13:34;24.40;99.00
736;DHT22;352;48.626;9.238;2023-07-02T07:16:01;24.00;99.60
736;DHT22;352;48.626;9.238;2023-07-02T07:18:27;23.80;99.90
736;DHT22;352;48.626;9.238;2023-07-02T07:20:55;23.60;99.90
736;DHT22;352;48.626;9.238;2023-07-02T07:23:22;23.80;99.90
736;DHT22;352;48.626;9.238;2023-07-02T07:25:49;24.00;99.90
736;DHT22;352;48.626;9.238;2023-07-02T07:28:15;24.20;99.80
736;DHT22;352;48.626;9.238;2023-07-02T07:30:42;24.30;99.60
736;DHT22;352;48.626;9.238;2023-07-02T07:33:10;24.30;98.80
736;DHT22;352;48.626;9.238;2023-07-02T07:35:37;24.30;98.80
736;DHT22;352;48.626;9.238;2023-07-02T07:38:05;24.30;98.80
736;DHT22;352;48.626;9.238;2023-07-02T07:40:31;24.20;98.60
736;DHT22;352;48.626;9.238;2023-07-02T07:42:58;24.00;99.30
736;DHT22;352;48.626;9.238;2023-07-02T07:45:25;23.90;98.90
736;DHT22;352;48.626;9.238;2023-07-02T07:47:52;24.00;99.90
736;DHT22;352;48.626;9.238;2023-07-02T07:50:18;24.30;98.60
736;DHT22;352;48.626;9.238;2023-07-02T07:52:45;24.40;98.50
736;DHT22;352;48.626;9.238;2023-07-02T07:55:13;24.40;98.80
736;DHT22;352;48.626;9.238;2023-07-02T07:57:40;24.50;98.70
736;DHT22;352;48.626;9.238;2023-07-02T08:00:07;24.60;98.40
736;DHT22;352;48.626;9.238;2023-07-02T08:02:36;24.60;97.70
736;DHT22;352;48.626;9.238;2023-07-02T08:05:04;24.70;98.00
736;DHT22;352;48.626;9.238;2023-07-02T08:07:31;24.70;97.60
736;DHT22;352;48.626;9.238;2023-07-02T08:09:58;24.80;97.00
736;DHT22;352;48.626;9.238;2023-07-02T08:12:26;25.20;97.10
736;DHT22;352;48.626;9.238;2023-07-02T08:14:54;25.50;95.20
736;DHT22;352;48.626;9.238;2023-07-02T08:17:21;25.90;95.80
736;DHT22;352;48.626;9.238;2023-07-02T08:19:48;26.30;94.10
736;DHT22;352;48.626;9.238;2023-07-02T08:22:15;26.40;93.60
736;DHT22;352;48.626;9.238;2023-07-02T08:24:41;26.50;92.80
736;DHT22;352;48.626;9.238;2023-07-02T08:27:09;26.70;92.00
736;DHT22;352;48.626;9.238;2023-07-02T08:29:37;26.90;92.90
736;DHT22;352;48.626;9.238;2023-07-02T08:32:04;26.80;92.80
736;DHT22;352;48.626;9.238;2023-07-02T08:34:31;26.80;92.00
736;DHT22;352;48.626;9.238;2023-07-02T08:36:57;26.50;92.60
736;DHT22;352;48.626;9.238;2023-07-02T08:39:24;26.80;93.30
736;DHT22;352;48.626;9.238;2023-07-02T08:41:51;27.20;92.70
736;DHT22;352;48.626;9.238;2023-07-02T08:44:19;27.80;88.70
736;DHT22;352;48.626;9.238;2023-07-02T08:46:48;28.30;87.70
736;DHT22;352;48.626;9.238;2023-07-02T08:49:16;28.40;85.00
736;DHT22;352;48.626;9.238;2023-07-02T08:51:44;28.40;85.30
736;DHT22;352;48.626;9.238;2023-07-02T08:54:11;28.60;84.60
736;DHT22;352;48.626;9.238;2023-07-02T08:56:38;28.80;86.20
736;DHT22;352;48.626;9.238;2023-07-02T08:59:06;29.10;83.50
736;DHT22;352;48.626;9.238;2023-07-02T09:01:43;29.20;78.70
736;DHT22;352;48.626;9.238;2023-07-02T09:04:19;29.00;79.20
736;DHT22;352;48.626;9.238;2023-07-02T09:06:46;29.00;78.60
736;DHT22;352;48.626;9.238;2023-07-02T09:09:14;29.50;84.90
736;DHT22;352;48.626;9.238;2023-07-02T09:11:47;29.50;77.30
736;DHT22;352;48.626;9.238;2023-07-02T09:14:24;29.70;76.10
736;DHT22;352;48.626;9.238;2023-07-02T09:17:01;29.90;73.70
736;DHT22;352;48.626;9.238;2023-07-02T09:19:30;30.60;75.40
736;DHT22;352;48.626;9.238;2023-07-02T09:21:58;30.00;72.20
736;DHT22;352;48.626;9.238;2023-07-02T09:24:26;30.00;73.40
736;DHT22;352;48.626;9.238;2023-07-02T09:26:54;29.90;71.10
736;DHT22;352;48.626;9.238;2023-07-02T09:29:22;29.50;71.50
736;DHT22;352;48.626;9.238;2023-07-02T09:31:50;29.30;74.30
736;DHT22;352;48.626;9.238;2023-07-02T09:34:17;29.00;74.70
736;DHT22;352;48.626;9.238;2023-07-02T09:36:45;29.20;72.10
736;DHT22;352;48.626;9.238;2023-07-02T09:39:14;29.50;67.50
736;DHT22;352;48.626;9.238;2023-07-02T09:41:41;29.80;71.20
736;DHT22;352;48.626;9.238;2023-07-02T09:44:09;30.30;66.70
736;DHT22;352;48.626;9.238;2023-07-02T09:46:37;30.80;67.40
736;DHT22;352;48.626;9.238;2023-07-02T09:49:12;30.60;63.30
736;DHT22;352;48.626;9.238;2023-07-02T09:51:41;30.50;68.20
736;DHT22;352;48.626;9.238;2023-07-02T09:54:10;30.30;66.80
736;DHT22;352;48.626;9.238;2023-07-02T09:56:37;30.00;66.80
736;DHT22;352;48.626;9.238;2023-07-02T09:59:04;29.70;65.70
736;DHT22;352;48.626;9.238;2023-07-02T10:01:31;29.70;69.20
736;DHT22;352;48.626;9.238;2023-07-02T10:03:57;29.60;67.10
736;DHT22;352;48.626;9.238;2023-07-02T10:06:24;29.30;67.70
736;DHT22;352;48.626;9.238;2023-07-02T10:08:54;29.00;69.80
736;DHT22;352;48.626;9.238;2023-07-02T10:11:33;28.90;70.70
736;DHT22;352;48.626;9.238;2023-07-02T10:14:00;29.00;69.50
736;DHT22;352;48.626;9.238;2023-07-02T10:16:27;29.10;68.60
736;DHT22;352;48.626;9.238;2023-07-02T10:19:08;29.20;66.30
736;DHT22;352;48.626;9.238;2023-07-02T10:21:34;29.60;68.00
736;DHT22;352;48.626;9.238;2023-07-02T10:24:09;30.10;66.20
736;DHT22;352;48.626;9.238;2023-07-02T10:26:37;30.50;61.30
736;DHT22;352;48.626;9.238;2023-07-02T10:29:06;30.60;62.80
736;DHT22;352;48.626;9.238;2023-07-02T10:31:32;30.90;63.70
736;DHT22;352;48.626;9.238;2023-07-02T10:33:59;31.10;62.20
736;DHT22;352;48.626;9.238;2023-07-02T10:36:26;31.00;61.40
736;DHT22;352;48.626;9.238;2023-07-02T10:38:53;30.80;60.60
736;DHT22;352;48.626;9.238;2023-07-02T10:41:27;30.70;60.60
736;DHT22;352;48.626;9.238;2023-07-02T10:44:05;30.50;59.20
736;DHT22;352;48.626;9.238;2023-07-02T10:46:32;30.40;60.30
736;DHT22;352;48.626;9.238;2023-07-02T10:48:58;30.40;60.30
736;DHT22;352;48.626;9.238;2023-07-02T10:51:25;30.50;58.50
736;DHT22;352;48.626;9.238;2023-07-02T10:53:57;30.70;57.70
736;DHT22;352;48.626;9.238;2023-07-02T10:56:24;30.90;59.50
736;DHT22;352;48.626;9.238;2023-07-02T10:58:51;31.30;57.80
736;DHT22;352;48.626;9.238;2023-07-02T11:01:24;31.50;57.90
736;DHT22;352;48.626;9.238;2023-07-02T11:03:58;31.60;56.70
736;DHT22;352;48.626;9.238;2023-07-02T11:06:25;31.40;55.90
736;DHT22;352;48.626;9.238;2023-07-02T11:08:52;31.40;56.60
736;DHT22;352;48.626;9.238;2023-07-02T11:11:20;31.50;58.10
736;DHT22;352;48.626;9.238;2023-07-02T11:13:48;31.60;54.80
736;DHT22;352;48.626;9.238;2023-07-02T11:16:20;31.80;54.80
736;DHT22;352;48.626;9.238;2023-07-02T11:18:50;31.70;54.00
736;DHT22;352;48.626;9.238;2023-07-02T11:21:16;31.40;55.20
736;DHT22;352;48.626;9.238;2023-07-02T11:23:43;31.30;54.00
736;DHT22;352;48.626;9.238;2023-07-02T11:26:10;31.00;55.50
736;DHT22;352;48.626;9.238;2023-07-02T11:28:48;31.00;56.20
736;DHT22;352;48.626;9.238;2023-07-02T11:31:24;31.10;55.30
736;DHT22;352;48.626;9.238;2023-07-02T11:33:52;31.00;55.60
736;DHT22;352;48.626;9.238;2023-07-02T11:36:20;31.00;56.20
736;DHT22;352;48.626;9.238;2023-07-02T11:38:48;30.90;54.80
736;DHT22;352;48.626;9.238;2023-07-02T11:41:15;30.90;54.40
736;DHT22;352;48.626;9.238;2023-07-02T11:43:42;31.00;55.90
736;DHT22;352;48.626;9.238;2023-07-02T11:46:08;31.00;54.60
736;DHT22;352;48.626;9.238;2023-07-02T11:48:35;30.90;55.00
736;DHT22;352;48.626;9.238;2023-07-02T11:51:03;31.00;54.30
736;DHT22;352;48.626;9.238;2023-07-02T11:53:30;30.90;54.80
736;DHT22;352;48.626;9.238;2023-07-02T11:55:57;31.00;52.70
736;DHT22;352;48.626;9.238;2023-07-02T11:58:23;30.90;55.40
736;DHT22;352;48.626;9.238;2023-07-02T12:00:50;30.80;54.50
736;DHT22;352;48.626;9.238;2023-07-02T12:03:16;30.70;54.50
736;DHT22;352;48.626;9.238;2023-07-02T12:05:43;30.60;52.60
736;DHT22;352;48.626;9.238;2023-07-02T12:08:11;30.50;53.20
736;DHT22;352;48.626;9.238;2023-07-02T12:10:38;30.50;52.70
736;DHT22;352;48.626;9.238;2023-07-02T12:13:04;30.40;54.00
736;DHT22;352;48.626;9.238;2023-07-02T12:15:31;30.30;52.90
736;DHT22;352;48.626;9.238;2023-07-02T12:17:58;30.30;55.30
736;DHT22;352;48.626;9.238;2023-07-02T12:20:25;30.30;55.10
736;DHT22;352;48.626;9.238;2023-07-02T12:22:51;30.20;54.30
736;DHT22;352;48.626;9.238;2023-07-02T12:25:20;30.20;54.40
736;DHT22;352;48.626;9.238;2023-07-02T12:27:46;30.20;53.60
736;DHT22;352;48.626;9.238;2023-07-02T12:30:13;30.20;53.50
736;DHT22;352;48.626;9.238;2023-07-02T12:32:42;30.20;55.40
736;DHT22;352;48.626;9.238;2023-07-02T12:35:09;30.10;54.10
736;DHT22;352;48.626;9.238;2023-07-02T12:37:43;30.00;53.00
736;DHT22;352;48.626;9.238;2023-07-02T12:40:11;29.90;54.90
736;DHT22;352;48.626;9.238;2023-07-02T12:42:40;29.90;52.50
736;DHT22;352;48.626;9.238;2023-07-02T12:45:08;29.80;52.40
736;DHT22;352;48.626;9.238;2023-07-02T12:47:35;29.60;54.20
736;DHT22;352;48.626;9.238;2023-07-02T12:50:02;29.50;53.70
736;DHT22;352;48.626;9.238;2023-07-02T12:52:29;29.40;53.20
736;DHT22;352;48.626;9.238;2023-07-02T12:54:56;29.40;53.10
736;DHT22;352;48.626;9.238;2023-07-02T12:57:23;29.40;53.80
736;DHT22;352;48.626;9.238;2023-07-02T12:59:53;29.30;53.70
736;DHT22;352;48.626;9.238;2023-07-02T13:02:20;29.30;53.10
736;DHT22;352;48.626;9.238;2023-07-02T13:04:47;29.20;53.00
736;DHT22;352;48.626;9.238;2023-07-02T13:07:13;29.20;51.50
736;DHT22;352;48.626;9.238;2023-07-02T13:09:40;29.20;53.30
736;DHT22;352;48.626;9.238;2023-07-02T13:12:07;29.10;53.50
736;DHT22;352;48.626;9.238;2023-07-02T13:14:34;29.10;53.10
736;DHT22;352;48.626;9.238;2023-07-02T13:17:03;29.00;53.00
736;DHT22;352;48.626;9.238;2023-07-02T13:19:31;29.00;54.10
736;DHT22;352;48.626;9.238;2023-07-02T13:21:57;28.90;51.90
736;DHT22;352;48.626;9.238;2023-07-02T13:24:24;28.80;52.50
736;DHT22;352;48.626;9.238;2023-07-02T13:26:51;28.70;52.80
736;DHT22;352;48.626;9.238;2023-07-02T13:29:18;28.70;53.40
736;DHT22;352;48.626;9.238;2023-07-02T13:31:44;28.70;54.50
736;DHT22;352;48.626;9.238;2023-07-02T13:34:12;28.70;54.60
736;DHT22;352;48.626;9.238;2023-07-02T13:36:39;28.60;53.00
736;DHT22;352;48.626;9.238;2023-07-02T13:39:06;28.50;53.70
736;DHT22;352;48.626;9.238;2023-07-02T13:41:33;28.50;52.50
736;DHT22;352;48.626;9.238;2023-07-02T13:43:59;28.50;53.80
736;DHT22;352;48.626;9.238;2023-07-02T13:46:26;28.50;52.60
736;DHT22;352;48.626;9.238;2023-07-02T13:48:53;28.50;53.90
736;DHT22;352;48.626;9.238;2023-07-02T13:51:21;28.50;53.70
736;DHT22;352;48.626;9.238;2023-07-02T13:53:48;28.60;53.90
736;DHT22;352;48.626;9.238;2023-07-02T13:56:15;28.60;53.90
736;DHT22;352;48.626;9.238;2023-07-02T13:59:04;28.60;53.10
736;DHT22;352;48.626;9.238;2023-07-02T14:01:31;28.50;52.90
736;DHT22;352;48.626;9.238;2023-07-02T14:03:59;28.50;52.00
736;DHT22;352;48.626;9.238;2023-07-02T14:06:26;28.40;52.60
736;DHT22;352;48.626;9.238;2023-07-02T14:08:53;28.40;52.70
736;DHT22;352;48.626;9.238;2023-07-02T14:11:21;28.30;52.70
736;DHT22;352;48.626;9.238;2023-07-02T14:13:48;28.30;51.70
736;DHT22;352;48.626;9.238;2023-07-02T14:16:16;28.20;52.00
736;DHT22;352;48.626;9.238;2023-07-02T14:18:43;28.10;53.70
736;DHT22;352;48.626;9.238;2023-07-02T14:21:09;28.10;54.50
736;DHT22;352;48.626;9.238;2023-07-02T14:23:36;28.10;55.40
736;DHT22;352;48.626;9.238;2023-07-02T14:26:03;28.20;55.00
736;DHT22;352;48.626;9.238;2023-07-02T14:28:30;28.20;53.30
736;DHT22;352;48.626;9.238;2023-07-02T14:30:58;28.20;54.60
736;DHT22;352;48.626;9.238;2023-07-02T14:33:27;28.20;53.50
736;DHT22;352;48.626;9.238;2023-07-02T14:35:54;28.20;53.70
736;DHT22;352;48.626;9.238;2023-07-02T14:38:27;28.20;54.40
736;DHT22;352;48.626;9.238;2023-07-02T14:40:54;28.20;53.70
736;DHT22;352;48.626;9.238;2023-07-02T14:43:26;28.20;55.40
736;DHT22;352;48.626;9.238;2023-07-02T14:45:56;28.20;54.60
736;DHT22;352;48.626;9.238;2023-07-02T14:48:27;28.20;56.20
736;DHT22;352;48.626;9.238;2023-07-02T14:50:55;28.20;56.50
736;DHT22;352;48.626;9.238;2023-07-02T14:53:27;28.20;55.90
736;DHT22;352;48.626;9.238;2023-07-02T14:55:56;28.20;54.50
736;DHT22;352;48.626;9.238;2023-07-02T14:58:24;28.30;55.40
736;DHT22;352;48.626;9.238;2023-07-02T15:00:53;28.30;55.70
736;DHT22;352;48.626;9.238;2023-07-02T15:03:22;28.30;55.90
736;DHT22;352;48.626;9.238;2023-07-02T15:05:51;28.30;55.60
736;DHT22;352;48.626;9.238;2023-07-02T15:08:18;28.30;55.60
736;DHT22;352;48.626;9.238;2023-07-02T15:10:48;28.30;56.00
736;DHT22;352;48.626;9.238;2023-07-02T15:13:15;28.20;55.10
736;DHT22;352;48.626;9.238;2023-07-02T15:15:44;28.10;56.50
736;DHT22;352;48.626;9.238;2023-07-02T15:18:11;28.10;56.30
736;DHT22;352;48.626;9.238;2023-07-02T15:20:38;28.00;56.50
736;DHT22;352;48.626;9.238;2023-07-02T15:23:06;28.00;57.60
736;DHT22;352;48.626;9.238;2023-07-02T15:25:33;28.00;56.60
736;DHT22;352;48.626;9.238;2023-07-02T15:28:00;28.00;56.40
736;DHT22;352;48.626;9.238;2023-07-02T15:30:27;27.90;56.80
736;DHT22;352;48.626;9.238;2023-07-02T15:32:54;27.90;57.40
736;DHT22;352;48.626;9.238;2023-07-02T15:35:21;27.90;57.40
736;DHT22;352;48.626;9.238;2023-07-02T15:37:48;27.80;55.70
736;DHT22;352;48.626;9.238;2023-07-02T15:40:16;27.80;56.30
736;DHT22;352;48.626;9.238;2023-07-02T15:42:43;27.70;57.60
736;DHT22;352;48.626;9.238;2023-07-02T15:45:10;27.70;57.50
736;DHT22;352;48.626;9.238;2023-07-02T15:47:37;27.70;56.60
736;DHT22;352;48.626;9.238;2023-07-02T15:50:04;27.70;56.00
736;DHT22;352;48.626;9.238;2023-07-02T15:52:31;27.70;55.90
736;DHT22;352;48.626;9.238;2023-07-02T15:54:58;27.60;55.80
736;DHT22;352;48.626;9.238;2023-07-02T15:57:26;27.60;56.30
736;DHT22;352;48.626;9.238;2023-07-02T15:59:53;27.50;56.20
736;DHT22;352;48.626;9.238;2023-07-02T16:02:20;27.50;56.90
736;DHT22;352;48.626;9.238;2023-07-02T16:04:47;27.40;56.00
736;DHT22;352;48.626;9.238;2023-07-02T16:07:14;27.40;56.80
736;DHT22;352;48.626;9.238;2023-07-02T16:09:41;27.40;56.50
736;DHT22;352;48.626;9.238;2023-07-02T16:12:08;27.40;56.20
736;DHT22;352;48.626;9.238;2023-07-02T16:14:36;27.30;55.80
736;DHT22;352;48.626;9.238;2023-07-02T16:17:04;27.30;56.10
736;DHT22;352;48.626;9.238;2023-07-02T16:19:31;27.20;56.60
736;DHT22;352;48.626;9.238;2023-07-02T16:21:57;27.20;57.40
736;DHT22;352;48.626;9.238;2023-07-02T16:24:26;27.10;56.60
736;DHT22;352;48.626;9.238;2023-07-02T16:26:54;27.10;56.20
736;DHT22;352;48.626;9.238;2023-07-02T16:29:22;27.10;56.60
736;DHT22;352;48.626;9.238;2023-07-02T16:31:52;27.10;55.90
736;DHT22;352;48.626;9.238;2023-07-02T16:34:19;27.00;56.30
736;DHT22;352;48.626;9.238;2023-07-02T16:36:46;27.00;56.30